sim
Sign-in with your pilot id or email,
or register
Callsign
Passwort

Schedule Details

Flight Number: DLH453
Departure: Los Angeles International Airport (KLAX) at 01:15
Arrival: Munich Airport (EDDM) at 12:35
Route: Lufthansa Passenger Schedule. Enter filed route here before submitting Pirep.

Weather Information
Getting current METAR information for KLAX 282153Z 26011KT 10SM FEW010 23/18 A2989 RMK AO2 SLP118 T02280178
Getting current METAR information for EDDM 282150Z VRB02KT CAVOK 08/07 Q1016 NOSIG

Schedule Frequency

Route Map